Kezdőlap
METAR-TAF:

METAR-TAF

Repülőterek :

Mafikeng, Dél-afrikai Köztársaság

földrajzi szélesség: 25-47S, földrajzi hosszúság: 025-32E, magasság: 1281 m

Jelenlegi meteorológiai megfigyelések

A jelentés 32 perccel ezelõtt készült, 23:00 UTC
Északkeleti szél 6 kt
Hőmérséklet 12°C
Páratartalom 88%
Légköri nyomás 1023 hPa

METAR: FAMM 202300Z AUTO 04006KT //// // ////// 12/10 Q1023

Idő: 01:32 (23:32 UTC)

Előrejelzés

A jelentés 7 órával és 32 perccel ezelõtt készült, 16:00 UTC
Az előrejelzés 20-én 10 óra UTC és 20-én 18 óra UTC között érvényes
Északkeleti szél 6 kt
Látótávolság 10 km, vagy több
felhőtlen 1500 m magasságban, és nincs gomolyfelhõ
Valószínűség 30% :
20-én 17 óra UTC és 20-én 18 óra UTC között ideiglenes
Szakadozott felhőzet 1200 lábon

TAF: FAMM 201600Z 2010/2018 04006KT CAVOK PROB30 TEMPO 2017/2018 BKN012 TX21/2013Z TN12/2018Z

Meteorológiai megfigyelések és előrejelzések több, mint 4000 repülőtéren (METAR és TAF jelentéseket).

A térképen piros és sárga pontok jelzik az elérhető meteorológiai állomásokat.

Mozgassa az egeret a pont fölött, hogy megjelenjen az állomás neve.

Azután kattintson az időjárási megfigyelések és előrejelzések megtekintéséhez.

A térkép megváltoztatása: kattintson a fekete keresztel jelölt zöld gombra ráközelítéshez, a vonallal jelölt zöld gombra távolításhoz, vagy a zöld nyilakra a szomszédos térképek eléréséhez.


METAR-TAF: